• Join FlightAware (Why Join?)
  • Login
  • US Flag 
07:57PM EDT


 

Airport Tracker/Info


-or-


 

Live Flight TrackerFlight Track Log ✈ SKW5516 ✈ 31-May-2013 ✈ KSFO - KSAN

Flight Track Log - Related Links

Times and Time Zones

All times are in EDT time to prevent confusion due to time zone crossing. See the SKW5516 flight status page for this flight to view local times or setup timezone preferences in your user account.

Time Position Orientation Groundspeed Altitude Reporting Facility
EDT Latitude Longitude Course Direction KTS MPH feet Rate Location/Type
07:31PM 37.2897 -121.9970 138° Southeast  Level Estimated
07:32PM 37.2072 -121.9030 138° Southeast  Level Estimated
07:33PM 37.1246 -121.8091 138° Southeast  Level Estimated
07:34PM 37.0419 -121.7155 138° Southeast  Level Estimated
07:35PM 36.9592 -121.6221 138° Southeast  Level Estimated
07:36PM 36.8763 -121.5288 138° Southeast  Level Estimated
07:37PM 36.7934 -121.4358 138° Southeast  Level Estimated
07:38PM 36.7105 -121.3430 138° Southeast  Level Estimated
07:39PM 36.6274 -121.2504 138° Southeast  Level Estimated
07:40PM 36.5443 -121.1580 138° Southeast  Level Estimated
07:41PM 36.4611 -121.0657 138° Southeast  Level Estimated
07:42PM 36.3779 -120.9737 138° Southeast  Level Estimated
07:43PM 36.2945 -120.8819 138° Southeast  Level Estimated
07:44PM 36.2111 -120.7902 138° Southeast  Level Estimated
07:45PM 36.1277 -120.6988 138° Southeast  Level Estimated
07:46PM 36.0441 -120.6076 139° Southeast  Level Estimated
07:47PM 35.9605 -120.5165 139° Southeast  Level Estimated
07:48PM 35.8769 -120.4257 139° Southeast  Level Estimated
07:49PM 35.7931 -120.3350 139° Southeast  Level Estimated
07:50PM 35.7093 -120.2445 139° Southeast  Level Estimated
07:51PM 35.6254 -120.1542 139° Southeast  Level Estimated
07:52PM 35.5415 -120.0641 139° Southeast  Level Estimated
07:53PM 35.4575 -119.9742 139° Southeast  Level Estimated
07:54PM 35.3734 -119.8845 139° Southeast  Level Estimated
07:55PM 35.2893 -119.7950 139° Southeast  Level Estimated
07:56PM 35.2051 -119.7056 139° Southeast  Level Estimated
07:57PM 35.1208 -119.6165 139° Southeast  Level Estimated
07:58PM 35.0364 -119.5275 139° Southeast  Level Estimated
07:59PM 34.9520 -119.4387 139° Southeast  Level Estimated
08:00PM 34.8676 -119.3501 139° Southeast  Level Estimated
08:01PM 34.7830 -119.2617 139° Southeast  Level Estimated
08:02PM 34.6984 -119.1734 139° Southeast  Level Estimated
08:03PM 34.6138 -119.0853 139° Southeast  Level Estimated
08:04PM 34.5291 -118.9974 139° Southeast  Level Estimated
08:05PM 34.4443 -118.9097 140° Southeast  Level Estimated
08:06PM 34.3594 -118.8222 140° Southeast  Level Estimated
08:07PM 34.2745 -118.7348 140° Southeast  Level Estimated
08:08PM 34.1895 -118.6477 140° Southeast  Level Estimated
08:09PM 34.1045 -118.5607 140° Southeast  Level Estimated
08:10PM 34.0194 -118.4738 140° Southeast  Level Estimated
08:11PM 33.9342 -118.3872 140° Southeast  Level Estimated
08:12PM 33.8490 -118.3007 140° Southeast  Level Estimated
08:13PM 33.7637 -118.2144 140° Southeast  Level Estimated
08:14PM 33.6784 -118.1283 140° Southeast  Level Estimated
08:15PM 33.5930 -118.0423 140° Southeast  Level Estimated
08:16PM 33.5075 -117.9565 140° Southeast  Level Estimated
08:17PM 33.4220 -117.8709 140° Southeast  Level Estimated
08:18PM 33.3364 -117.7854 140° Southeast  Level Estimated
08:19PM 33.2508 -117.7001 140° Southeast  Level Estimated
08:20PM 33.1651 -117.6150 140° Southeast  Level Estimated
08:21PM 33.0794 -117.5301 140° Southeast  Level Estimated
08:22PM 32.9936 -117.4453 140° Southeast  Level Estimated
08:23PM 32.9077 -117.3606 140° Southeast  Level Estimated
08:24PM 32.8218 -117.2762 140° Southeast  Level Estimated
08:25PM 32.7358 -117.1919 140° Southeast  Level Estimated
08:26PM 32.7336 -117.1897 140° Southeast  Level Estimated
08:27PM 32.7336 -117.1897 148° Southeast  Level Estimated
08:28PM 32.7336 -117.1897 148° Southeast  Level Estimated
08:29PM 32.7336 -117.1897 148° Southeast  Level Estimated
08:30PM 32.7336 -117.1897 148° Southeast  Level Estimated
08:31PM 32.7336 -117.1897 148° Southeast  Level Estimated
08:32PM 32.7336 -117.1897 148° Southeast  Level Estimated
08:33PM 32.7336 -117.1897 148° Southeast  Level Estimated
08:34PM 32.7336 -117.1897 148° Southeast  Level Estimated
08:35PM 32.7336 -117.1897 148° Southeast  Level Estimated
08:36PM 32.7336 -117.1897 148° Southeast  Level Estimated
08:37PM 32.7336 -117.1897 148° Southeast  Level Estimated
08:38PM 32.7336 -117.1897 148° Southeast  Level Estimated
08:39PM 32.7336 -117.1897 148° Southeast  Level Estimated
08:40PM 32.7336 -117.1897 148° Southeast  Level Estimated
08:41PM 32.7336 -117.1897 148° Southeast  Level Estimated